Terminal Aerodrome Forecast
Issued by NWS

Home | Current Version | Previous Version | Text Only | Print | Product List | Glossary On
Versions: 1 2 3 4 5 6 7 8 9 10 11 12 13 14 15 16 17
157
FTUS45 KPSR 161126
TAFIPL
TAF
KIPL 161126Z 1612/1712 VRB03KT P6SM FEW050 BKN250
     FM161800 34006KT P6SM FEW060 BKN250
     FM170300 26005KT P6SM SCT250=

USA.gov is the U.S. government's official web portal to all federal, state and local government web resources and services.